Time;durP1;ratioP1;P1;durP2;ratioP2;P2;SDS_P1;SDS_P2;PMS_P1;PMS_P2;Temp;Humidity;BMP_temperature;BMP_pressure;BME280_temperature;BME280_humidity;BME280_pressure;Samples;Min_cycle;Max_cycle;Signal;HPM_P1;HPM_P2
2021/12/11 00:00:57;;;;;;;32.45;23.95;;;;;;;-2.30;100.00;99976.00;5029049;28;20069;-81
2021/12/11 00:03:29;;;;;;;35.60;23.17;;;;;;;-2.36;100.00;99977.25;5030454;28;20057;-80
2021/12/11 00:06:25;;;;;;;31.67;23.52;;;;;;;-2.39;100.00;99985.31;5027695;28;20516;-81
2021/12/11 00:08:54;;;;;;;34.40;22.80;;;;;;;-2.39;100.00;99995.00;5034373;28;20040;-80
2021/12/11 00:11:25;;;;;;;28.65;21.80;;;;;;;-2.40;100.00;99990.69;5025446;28;20041;-80
2021/12/11 00:13:56;;;;;;;29.75;19.45;;;;;;;-2.46;100.00;99998.97;5044288;28;20044;-80
2021/12/11 00:16:24;;;;;;;31.27;23.58;;;;;;;-2.40;100.00;100001.19;5054940;28;20475;-81
2021/12/11 00:18:53;;;;;;;31.08;21.17;;;;;;;-2.37;100.00;100003.63;5045672;28;20513;-81
2021/12/11 00:21:20;;;;;;;31.70;22.13;;;;;;;-2.35;100.00;100015.72;5039014;28;20821;-81
2021/12/11 00:23:52;;;;;;;35.17;22.02;;;;;;;-2.44;100.00;100011.06;5024103;28;20128;-80
2021/12/11 00:26:44;;;;;;;34.55;24.70;;;;;;;-2.34;100.00;100016.56;4998733;28;20048;-80
2021/12/11 00:29:13;;;;;;;28.15;18.98;;;;;;;-2.56;100.00;100033.75;5014291;28;20168;-80
2021/12/11 00:31:46;;;;;;;32.38;22.35;;;;;;;-2.46;100.00;100038.38;5006934;28;20067;-81
2021/12/11 00:34:15;;;;;;;31.08;22.25;;;;;;;-2.59;100.00;100044.44;5018200;28;20033;-80
2021/12/11 00:36:52;;;;;;;38.70;26.50;;;;;;;-2.56;100.00;100054.75;5000500;28;20106;-81
2021/12/11 00:39:20;;;;;;;49.25;32.42;;;;;;;-2.57;100.00;100055.69;5020961;28;20041;-81
2021/12/11 00:41:53;;;;;;;32.10;23.67;;;;;;;-2.60;100.00;100057.66;5019504;28;20045;-81
2021/12/11 00:44:19;;;;;;;38.78;26.20;;;;;;;-2.53;100.00;100065.06;5002321;28;20084;-81
2021/12/11 00:46:45;;;;;;;31.20;21.30;;;;;;;-2.64;100.00;100072.78;5018201;28;20080;-80
2021/12/11 00:49:21;;;;;;;33.60;23.02;;;;;;;-2.54;100.00;100084.38;5005292;28;20057;-81
2021/12/11 00:51:57;;;;;;;27.40;19.38;;;;;;;-2.62;100.00;100083.19;4992397;28;20041;-81
2021/12/11 00:54:22;;;;;;;35.15;21.45;;;;;;;-2.55;100.00;100087.97;5000601;28;20049;-80
2021/12/11 00:56:49;;;;;;;32.08;21.42;;;;;;;-2.55;100.00;100095.84;5002962;28;20713;-81
2021/12/11 00:59:18;;;;;;;28.58;19.95;;;;;;;-2.59;100.00;100094.34;5000028;28;20792;-80
2021/12/11 01:01:50;;;;;;;32.92;21.08;;;;;;;-2.52;100.00;100110.56;5017051;28;20053;-80
2021/12/11 01:04:20;;;;;;;33.53;19.85;;;;;;;-2.59;100.00;100112.75;5015546;28;20502;-81
2021/12/11 01:06:53;;;;;;;30.42;21.23;;;;;;;-2.61;100.00;100114.63;4999614;28;20053;-81
2021/12/11 01:09:28;;;;;;;33.97;21.42;;;;;;;-2.58;100.00;100121.47;5021095;28;20038;-81
2021/12/11 01:12:03;;;;;;;30.80;22.23;;;;;;;-2.63;100.00;100129.63;5004121;28;20029;-81
2021/12/11 01:14:40;;;;;;;32.47;21.65;;;;;;;-2.47;100.00;100136.53;5020915;28;20095;-81
2021/12/11 01:17:08;;;;;;;33.38;22.58;;;;;;;-2.51;100.00;100141.13;5025327;28;20034;-80
2021/12/11 01:19:39;;;;;;;32.67;24.48;;;;;;;-2.49;100.00;100139.28;5025869;28;20586;-81
2021/12/11 01:22:19;;;;;;;34.05;21.95;;;;;;;-2.58;100.00;100155.63;5024586;28;20038;-81
2021/12/11 01:24:46;;;;;;;32.63;20.73;;;;;;;-2.60;100.00;100158.31;5009887;28;20045;-81
2021/12/11 01:27:18;;;;;;;33.63;24.92;;;;;;;-2.58;100.00;100163.50;5039364;28;20125;-80
2021/12/11 01:29:46;;;;;;;34.40;22.98;;;;;;;-2.51;100.00;100173.50;5025784;28;20041;-80
2021/12/11 01:32:13;;;;;;;33.75;20.02;;;;;;;-2.75;100.00;100178.50;5040257;28;20037;-80
2021/12/11 01:34:39;;;;;;;33.38;21.13;;;;;;;-2.63;100.00;100181.31;5032453;28;20049;-80
2021/12/11 01:37:06;;;;;;;39.05;24.73;;;;;;;-2.57;100.00;100181.78;5028412;28;20125;-80
2021/12/11 01:39:36;;;;;;;35.67;22.67;;;;;;;-2.73;100.00;100187.16;5025048;28;20053;-81
2021/12/11 01:42:09;;;;;;;39.28;24.10;;;;;;;-2.70;100.00;100187.88;5010674;28;20152;-81
2021/12/11 01:44:38;;;;;;;31.95;23.80;;;;;;;-2.63;100.00;100189.19;5020973;28;20132;-81
2021/12/11 01:47:11;;;;;;;;;;;;;;;-2.70;100.00;100194.00;5026543;28;20866;-81
2021/12/11 01:49:41;;;;;;;39.50;24.73;;;;;;;-2.84;100.00;100192.22;5028491;28;20000;-81
2021/12/11 01:52:38;;;;;;;38.00;25.60;;;;;;;-2.81;100.00;100199.06;5028244;28;20072;-82
2021/12/11 01:55:35;;;;;;;33.83;23.08;;;;;;;-2.84;100.00;100207.13;5027741;28;20068;-82
2021/12/11 01:58:03;;;;;;;36.75;22.70;;;;;;;-2.85;100.00;100213.28;5026939;28;20140;-82
2021/12/11 02:00:34;;;;;;;35.57;21.80;;;;;;;-2.85;100.00;100216.78;5027456;28;20564;-81
2021/12/11 02:03:04;;;;;;;31.13;19.60;;;;;;;-3.04;100.00;100222.28;5016015;28;20700;-82
2021/12/11 02:05:32;;;;;;;33.22;22.73;;;;;;;-2.78;100.00;100227.75;5027345;28;20049;-82
2021/12/11 02:08:02;;;;;;;36.70;23.83;;;;;;;-2.73;100.00;100241.47;5027338;28;20037;-82
2021/12/11 02:10:34;;;;;;;35.40;23.63;;;;;;;-2.74;100.00;100251.09;5028863;28;20052;-81
2021/12/11 02:13:04;;;;;;;33.75;24.55;;;;;;;-2.72;100.00;100254.50;5011701;28;20076;-81
2021/12/11 02:15:35;;;;;;;31.75;23.23;;;;;;;-2.79;100.00;100260.19;5010903;28;20045;-82
2021/12/11 02:18:18;;;;;;;40.60;25.60;;;;;;;-2.77;100.00;100266.22;5027444;28;20045;-82
2021/12/11 02:20:53;;;;;;;40.30;27.20;;;;;;;-2.68;100.00;100270.91;5025824;28;20053;-82
2021/12/11 02:23:20;;;;;;;39.10;26.98;;;;;;;-2.64;100.00;100276.84;5027022;28;20053;-82
2021/12/11 02:25:48;;;;;;;33.47;23.05;;;;;;;-2.70;100.00;100278.06;5029251;28;20050;-82
2021/12/11 02:28:41;;;;;;;30.77;21.10;;;;;;;-2.79;100.00;100278.56;5027363;28;20065;-82
2021/12/11 02:31:20;;;;;;;39.63;24.80;;;;;;;-2.79;100.00;100279.44;5023892;28;20087;-82
2021/12/11 02:33:55;;;;;;;32.42;23.17;;;;;;;-2.83;100.00;100280.56;5026486;28;20068;-83
2021/12/11 02:36:29;;;;;;;32.30;21.83;;;;;;;-3.00;100.00;100285.94;5000115;28;20486;-82
2021/12/11 02:39:18;;;;;;;39.20;24.38;;;;;;;-2.93;100.00;100282.06;5029505;28;20046;-82
2021/12/11 02:41:50;;;;;;;34.63;24.10;;;;;;;-2.92;100.00;100288.13;5030829;28;20479;-82
2021/12/11 02:44:25;;;;;;;34.38;20.98;;;;;;;-3.03;100.00;100297.47;5047562;28;20037;-81
2021/12/11 02:47:00;;;;;;;37.78;24.67;;;;;;;-2.95;100.00;100299.66;5048924;28;20048;-82
2021/12/11 02:49:36;;;;;;;32.58;23.23;;;;;;;-3.00;100.00;100297.28;5010773;28;20038;-82
2021/12/11 02:52:07;;;;;;;35.80;23.67;;;;;;;-3.08;100.00;100294.31;5042246;28;20427;-82
2021/12/11 02:54:46;;;;;;;37.17;21.65;;;;;;;-3.16;100.00;100296.53;5041888;28;20044;-82
2021/12/11 02:57:22;;;;;;;34.33;22.92;;;;;;;-3.22;100.00;100307.38;5029696;28;20088;-82
2021/12/11 02:59:48;;;;;;;34.47;22.75;;;;;;;-3.27;100.00;100314.66;5030983;28;20036;-82
2021/12/11 03:02:20;;;;;;;29.92;20.15;;;;;;;-3.27;100.00;100312.88;5047265;28;20040;-82
2021/12/11 03:04:53;;;;;;;38.22;26.42;;;;;;;-3.09;100.00;100318.00;5030969;28;20052;-81
2021/12/11 03:07:35;;;;;;;37.85;23.92;;;;;;;-3.07;100.00;100324.00;5047794;28;20048;-82
2021/12/11 03:10:06;;;;;;;39.58;26.40;;;;;;;-2.98;100.00;100329.56;5030162;28;20052;-81
2021/12/11 03:12:31;;;;;;;37.97;22.35;;;;;;;-3.04;100.00;100327.31;4993012;28;20437;-82
2021/12/11 03:14:57;;;;;;;33.60;22.30;;;;;;;-3.19;100.00;100325.56;5028959;28;20038;-82
2021/12/11 03:17:25;;;;;;;31.92;20.45;;;;;;;-3.17;100.00;100331.56;5010077;28;20065;-82
2021/12/11 03:19:52;;;;;;;31.88;24.15;;;;;;;-3.11;100.00;100331.19;5019582;28;20128;-82
2021/12/11 03:22:23;;;;;;;33.35;24.27;;;;;;;-3.08;100.00;100338.94;5028139;28;20037;-82
2021/12/11 03:24:49;;;;;;;33.25;22.17;;;;;;;-3.15;100.00;100336.72;5027734;28;20489;-82
2021/12/11 03:27:14;;;;;;;31.40;22.45;;;;;;;-3.15;100.00;100349.84;5023172;28;20081;-82
2021/12/11 03:29:40;;;;;;;32.08;21.63;;;;;;;-3.24;100.00;100345.97;5024347;28;20037;-82
2021/12/11 03:32:10;;;;;;;35.50;23.42;;;;;;;-3.21;100.00;100356.31;5026062;28;20152;-82
2021/12/11 03:34:38;;;;;;;34.63;23.33;;;;;;;-3.25;100.00;100362.63;5033894;28;20045;-82
2021/12/11 03:37:07;;;;;;;34.55;22.63;;;;;;;-3.21;100.00;100372.88;5025641;28;20114;-82
2021/12/11 03:39:37;;;;;;;32.72;23.17;;;;;;;-3.32;100.00;100375.25;5038290;28;20098;-82
2021/12/11 03:42:09;;;;;;;36.20;22.70;;;;;;;-3.22;100.00;100370.38;5023477;28;20033;-83
2021/12/11 03:44:34;;;;;;;28.65;19.65;;;;;;;-3.32;100.00;100374.44;5016918;28;20493;-82
2021/12/11 03:47:07;;;;;;;31.02;21.38;;;;;;;-3.36;100.00;100383.41;5009098;28;20080;-82
2021/12/11 03:49:33;;;;;;;30.60;21.63;;;;;;;-3.28;100.00;100382.06;5011006;28;20439;-81
2021/12/11 03:51:59;;;;;;;30.95;21.35;;;;;;;-3.34;100.00;100385.00;5011695;28;20152;-82
2021/12/11 03:54:38;;;;;;;35.42;23.60;;;;;;;-3.41;100.00;100391.53;5033839;28;20045;-83
2021/12/11 03:57:07;;;;;;;33.38;22.85;;;;;;;-3.38;100.00;100395.75;5008077;28;20037;-83
2021/12/11 03:59:32;;;;;;;;;;;;;;;-3.43;100.00;100398.63;5022797;28;20045;-83
2021/12/11 04:02:04;;;;;;;37.78;23.08;;;;;;;-3.54;100.00;100394.00;5021872;28;19917;-82
2021/12/11 04:04:40;;;;;;;34.60;23.73;;;;;;;-3.50;100.00;100403.38;5017216;28;20046;-82
2021/12/11 04:07:10;;;;;;;30.15;21.77;;;;;;;-3.48;100.00;100400.66;5007898;28;20126;-83
2021/12/11 04:09:36;;;;;;;35.22;24.05;;;;;;;-3.48;100.00;100408.53;5045876;28;20040;-83
2021/12/11 04:12:03;;;;;;;32.05;23.42;;;;;;;-3.53;100.00;100413.19;5042875;28;20462;-83
2021/12/11 04:14:32;;;;;;;35.03;24.77;;;;;;;-3.56;100.00;100418.63;5021121;28;20092;-82
2021/12/11 04:16:59;;;;;;;35.45;22.23;;;;;;;-3.66;100.00;100418.25;5019813;28;20083;-83
2021/12/11 04:19:26;;;;;;;34.60;24.85;;;;;;;-3.57;100.00;100428.22;5041162;28;20156;-83
2021/12/11 04:21:52;;;;;;;40.00;25.65;;;;;;;-3.65;100.00;100435.69;5045093;28;20163;-82
2021/12/11 04:24:26;;;;;;;37.63;26.58;;;;;;;-3.64;100.00;100445.25;5028488;28;20116;-82
2021/12/11 04:26:55;;;;;;;38.35;25.35;;;;;;;-3.67;100.00;100438.38;5027576;28;20490;-82
2021/12/11 04:29:21;;;;;;;37.10;24.95;;;;;;;-3.77;100.00;100449.44;5028472;28;20049;-82
2021/12/11 04:31:47;;;;;;;36.08;24.08;;;;;;;-3.73;100.00;100454.44;5027544;28;20545;-82
2021/12/11 04:34:18;;;;;;;30.50;21.65;;;;;;;-3.79;100.00;100453.94;5044041;28;20037;-82
2021/12/11 04:36:52;;;;;;;38.75;23.23;;;;;;;-3.72;100.00;100460.53;5025222;28;20041;-82
2021/12/11 04:39:21;;;;;;;40.58;25.50;;;;;;;-3.76;100.00;100459.03;5025433;28;20570;-82
2021/12/11 04:42:01;;;;;;;34.03;24.58;;;;;;;-3.68;100.00;100459.47;5043678;28;20113;-82
2021/12/11 04:44:37;;;;;;;33.88;24.45;;;;;;;-3.76;100.00;100465.09;5028128;28;20131;-82
2021/12/11 04:47:06;;;;;;;37.45;25.60;;;;;;;-3.73;100.00;100469.34;5028311;28;20033;-82
2021/12/11 04:49:45;;;;;;;32.08;22.55;;;;;;;-3.81;100.00;100463.66;5026621;28;20049;-83
2021/12/11 04:52:18;;;;;;;35.92;24.77;;;;;;;-3.75;100.00;100472.03;5023891;28;20075;-82
2021/12/11 04:55:04;;;;;;;35.60;23.77;;;;;;;-3.77;100.00;100471.28;5022568;28;20432;-82
2021/12/11 05:09:16;;;;;;;33.65;21.77;;;;;;;-3.90;100.00;100491.19;5022452;28;20406;-82
2021/12/11 05:11:22;;;;;;;37.33;23.52;;;;;;;-3.86;100.00;100496.19;5022529;28;20037;-82
2021/12/11 05:13:47;;;;;;;34.13;22.45;;;;;;;-3.77;100.00;100505.38;5008190;28;20394;-82
2021/12/11 05:16:15;;;;;;;32.17;23.83;;;;;;;-3.76;100.00;100503.59;5000032;28;20048;-82
2021/12/11 05:18:43;;;;;;;36.63;22.10;;;;;;;-3.91;100.00;100503.47;5024969;28;20037;-82
2021/12/11 05:21:13;;;;;;;38.05;24.20;;;;;;;-3.81;100.00;100513.47;4991156;28;20029;-82
2021/12/11 05:23:39;;;;;;;30.55;22.52;;;;;;;-3.83;100.00;100510.06;5008360;28;20484;-82
2021/12/11 05:26:05;;;;;;;32.25;23.48;;;;;;;-3.89;100.00;100516.47;5005246;28;20517;-82
2021/12/11 05:28:33;;;;;;;37.92;24.88;;;;;;;-3.94;100.00;100519.34;5025341;28;20037;-82
2021/12/11 05:31:04;;;;;;;35.00;23.20;;;;;;;-3.95;100.00;100530.75;5005710;28;20033;-81
2021/12/11 05:33:37;;;;;;;36.78;24.85;;;;;;;-3.90;100.00;100528.75;5022366;28;20481;-82
2021/12/11 05:36:06;;;;;;;34.33;24.13;;;;;;;-3.95;100.00;100538.59;5007598;28;20052;-82
2021/12/11 05:38:35;;;;;;;38.75;24.52;;;;;;;-3.99;100.00;100547.56;5021627;28;20049;-82
2021/12/11 05:41:10;;;;;;;32.75;22.77;;;;;;;-3.98;100.00;100544.00;5006467;28;20128;-82
2021/12/11 05:43:37;;;;;;;33.58;24.48;;;;;;;-4.06;100.00;100556.66;5009688;28;20056;-82
2021/12/11 05:46:05;;;;;;;32.75;23.38;;;;;;;-4.02;100.00;100554.75;5044585;28;20383;-82
2021/12/11 05:48:30;;;;;;;36.63;24.73;;;;;;;-4.05;100.00;100568.00;5042708;28;20127;-82
2021/12/11 05:51:01;;;;;;;34.55;23.85;;;;;;;-4.07;100.00;100570.69;5037559;28;20486;-82
2021/12/11 05:53:28;;;;;;;33.97;23.58;;;;;;;-4.04;100.00;100578.41;5019031;28;20094;-82
2021/12/11 05:55:55;;;;;;;33.38;22.70;;;;;;;-4.10;100.00;100571.69;5042363;28;20490;-83
2021/12/11 05:58:35;;;;;;;33.63;23.92;;;;;;;-4.07;100.00;100575.94;5024266;28;20034;-83
2021/12/11 06:01:03;;;;;;;35.08;21.95;;;;;;;-4.18;100.00;100575.63;5006904;28;20069;-82
2021/12/11 06:03:29;;;;;;;37.00;23.73;;;;;;;-4.11;100.00;100577.03;4990865;28;20050;-83
2021/12/11 06:05:58;;;;;;;31.88;23.25;;;;;;;-4.06;100.00;100577.63;5024898;28;20064;-83
2021/12/11 06:08:24;;;;;;;36.20;23.70;;;;;;;-4.07;100.00;100581.19;5022894;28;20106;-82
2021/12/11 06:10:49;;;;;;;34.47;24.33;;;;;;;-4.14;100.00;100580.63;5024960;28;20482;-82
2021/12/11 06:13:16;;;;;;;32.42;22.42;;;;;;;-4.09;100.00;100590.88;5006255;28;20038;-81
2021/12/11 06:15:42;;;;;;;33.67;22.98;;;;;;;-4.03;100.00;100598.44;5023874;28;20379;-82
2021/12/11 06:18:13;;;;;;;32.40;20.17;;;;;;;-4.15;100.00;100594.66;5031921;28;20052;-82
2021/12/11 06:20:39;;;;;;;32.47;22.70;;;;;;;-4.19;100.00;100597.50;5011820;28;20116;-82
2021/12/11 06:23:04;;;;;;;34.92;23.17;;;;;;;-4.10;100.00;100612.78;5028395;28;20133;-82
2021/12/11 06:25:34;;;;;;;33.45;23.20;;;;;;;-4.11;100.00;100613.72;5011552;28;20061;-82
2021/12/11 06:28:00;;;;;;;34.13;24.80;;;;;;;-4.17;100.00;100621.84;5026445;28;20045;-82
2021/12/11 06:30:27;;;;;;;38.63;25.80;;;;;;;-4.21;100.00;100628.19;5044050;28;20048;-82
2021/12/11 06:32:53;;;;;;;39.90;25.83;;;;;;;-4.16;100.00;100623.56;5028988;28;20046;-82
2021/12/11 06:35:24;;;;;;;35.22;23.65;;;;;;;-4.20;100.00;100635.09;5026324;28;20052;-82
2021/12/11 06:37:50;;;;;;;33.60;22.33;;;;;;;-4.26;100.00;100643.25;5010987;28;20076;-82
2021/12/11 06:40:16;;;;;;;35.28;26.00;;;;;;;-4.17;100.00;100653.31;5010162;28;20459;-82
2021/12/11 06:42:42;;;;;;;36.63;24.58;;;;;;;-4.31;100.00;100652.22;5036706;28;20136;-82
2021/12/11 06:45:07;;;;;;;38.38;25.67;;;;;;;-4.22;100.00;100644.84;5044066;28;20037;-81
2021/12/11 06:47:33;;;;;;;35.67;24.40;;;;;;;-4.24;100.00;100659.78;5001496;28;20466;-83
2021/12/11 06:50:00;;;;;;;44.95;30.13;;;;;;;-4.22;100.00;100663.19;5037409;28;20045;-82
2021/12/11 06:52:27;;;;;;;49.33;30.55;;;;;;;-4.28;100.00;100663.47;5038760;28;20045;-82
2021/12/11 06:54:53;;;;;;;46.50;30.60;;;;;;;-4.30;100.00;100676.63;5011468;28;20123;-82
2021/12/11 06:57:19;;;;;;;44.47;31.67;;;;;;;-4.24;100.00;100671.09;5044438;28;20053;-82
2021/12/11 06:59:47;;;;;;;43.13;29.65;;;;;;;-4.29;100.00;100677.47;5024729;28;20076;-83
2021/12/11 07:02:14;;;;;;;45.40;30.92;;;;;;;-4.29;100.00;100687.94;5030275;28;20041;-82
2021/12/11 07:04:39;;;;;;;42.35;29.70;;;;;;;-4.29;100.00;100699.28;5030643;28;20506;-82
2021/12/11 07:07:05;;;;;;;41.03;28.55;;;;;;;-4.32;100.00;100692.41;5029866;28;20070;-83
2021/12/11 07:09:31;;;;;;;41.05;28.67;;;;;;;-4.31;100.00;100698.53;5020887;28;20402;-83
2021/12/11 07:11:57;;;;;;;43.72;31.05;;;;;;;-4.35;100.00;100703.03;5029334;28;20045;-84
2021/12/11 07:14:26;;;;;;;47.15;31.42;;;;;;;-4.35;100.00;100713.50;5025421;28;20079;-83
2021/12/11 07:16:52;;;;;;;45.90;29.83;;;;;;;-4.36;100.00;100711.81;5035110;28;20501;-83
2021/12/11 07:19:18;;;;;;;46.20;28.08;;;;;;;-4.38;100.00;100715.44;5024273;28;20046;-83
2021/12/11 07:21:46;;;;;;;48.20;31.08;;;;;;;-4.30;100.00;100726.41;5002396;28;20042;-83
2021/12/11 07:24:14;;;;;;;46.63;29.27;;;;;;;-4.29;100.00;100724.63;5026667;28;20647;-82
2021/12/11 07:26:40;;;;;;;44.50;30.73;;;;;;;-4.32;100.00;100734.31;5026389;28;20053;-83
2021/12/11 07:29:14;;;;;;;40.35;27.95;;;;;;;-4.40;100.00;100735.59;5045557;28;20045;-83
2021/12/11 07:31:42;;;;;;;51.20;31.60;;;;;;;-4.38;100.00;100745.09;5008933;28;20034;-83
2021/12/11 07:34:08;;;;;;;43.42;27.98;;;;;;;-4.44;100.00;100750.63;5008281;28;20494;-83
2021/12/11 07:36:34;;;;;;;49.67;32.88;;;;;;;-4.28;100.00;100748.16;5010433;28;20051;-83
2021/12/11 07:39:05;;;;;;;44.63;29.42;;;;;;;-4.28;100.00;100747.31;5028889;28;20037;-82
2021/12/11 07:41:31;;;;;;;44.83;31.45;;;;;;;-4.31;100.00;100751.78;5010847;28;20070;-83
2021/12/11 07:43:56;;;;;;;45.83;31.88;;;;;;;-4.36;100.00;100758.13;4990835;28;20128;-82
2021/12/11 07:46:24;;;;;;;44.17;31.48;;;;;;;-4.26;100.00;100761.19;5012511;28;20096;-82
2021/12/11 07:48:50;;;;;;;48.50;33.08;;;;;;;-4.21;100.00;100767.06;5008425;28;20115;-84
2021/12/11 07:51:17;;;;;;;48.28;30.98;;;;;;;-4.24;100.00;100762.81;5027557;28;20029;-82
2021/12/11 07:53:43;;;;;;;50.25;33.95;;;;;;;-4.17;100.00;100772.09;5031369;28;20180;-83
2021/12/11 07:56:09;;;;;;;54.13;34.80;;;;;;;-4.06;100.00;100775.97;5009087;28;20136;-83
2021/12/11 07:58:35;;;;;;;63.17;42.25;;;;;;;-3.99;100.00;100778.25;5018934;28;20041;-83
2021/12/11 08:01:03;;;;;;;51.75;33.50;;;;;;;-3.85;100.00;100793.34;5024003;28;20712;-83
2021/12/11 08:03:28;;;;;;;70.07;38.88;;;;;;;-3.66;100.00;100803.78;5023635;28;20135;-83
2021/12/11 08:05:54;;;;;;;81.18;45.63;;;;;;;-3.46;100.00;100810.72;5008809;28;20033;-83
2021/12/11 08:08:21;;;;;;;78.13;47.08;;;;;;;-3.38;100.00;100815.59;5022296;28;20502;-82
2021/12/11 08:10:52;;;;;;;75.10;41.85;;;;;;;-3.34;100.00;100814.50;4994556;28;20041;-83
2021/12/11 08:13:17;;;;;;;92.80;51.70;;;;;;;-3.27;100.00;100815.94;4991492;28;20041;-83
2021/12/11 08:15:45;;;;;;;97.82;46.17;;;;;;;-3.26;100.00;100820.25;5013250;28;20046;-83
2021/12/11 08:18:12;;;;;;;92.13;45.35;;;;;;;-3.19;100.00;100826.91;5027592;28;20045;-83
2021/12/11 08:20:41;;;;;;;93.63;48.08;;;;;;;-3.15;100.00;100833.69;4991144;28;20038;-82
2021/12/11 08:23:08;;;;;;;100.70;55.78;;;;;;;-3.09;100.00;100828.13;5024858;28;20049;-83
2021/12/11 08:25:35;;;;;;;75.40;34.22;;;;;;;-3.07;100.00;100841.19;5035307;28;20073;-83
2021/12/11 08:28:02;;;;;;;111.55;52.13;;;;;;;-2.99;100.00;100836.41;5018446;28;20044;-82
2021/12/11 08:30:30;;;;;;;76.18;36.45;;;;;;;-2.99;100.00;100834.63;5018322;28;20076;-82
2021/12/11 08:32:56;;;;;;;105.00;51.03;;;;;;;-2.93;100.00;100828.22;5030728;28;20053;-83
2021/12/11 08:35:21;;;;;;;99.15;52.42;;;;;;;-2.89;100.00;100842.88;5025793;28;20390;-83
2021/12/11 08:37:50;;;;;;;90.15;44.28;;;;;;;-2.86;100.00;100841.88;5017812;28;20176;-83
2021/12/11 08:40:21;;;;;;;87.20;45.92;;;;;;;-2.84;100.00;100854.03;5027465;28;20124;-83
2021/12/11 08:42:49;;;;;;;102.47;50.85;;;;;;;-2.79;100.00;100854.66;5037919;28;20038;-83
2021/12/11 08:45:22;;;;;;;91.85;44.03;;;;;;;-2.77;100.00;100854.56;5034090;28;20182;-83
2021/12/11 08:47:51;;;;;;;100.00;54.15;;;;;;;-2.78;100.00;100868.63;5026939;28;20034;-83
2021/12/11 08:50:18;;;;;;;;;;;;;;;-2.72;100.00;100865.69;5038762;28;20041;-83
2021/12/11 08:52:49;;;;;;;113.70;55.25;;;;;;;-2.80;100.00;100873.09;5025569;28;20484;-83
2021/12/11 08:55:22;;;;;;;88.93;44.15;;;;;;;-2.73;100.00;100883.22;5007638;28;20506;-83
2021/12/11 08:57:48;;;;;;;95.00;45.72;;;;;;;-2.66;100.00;100894.25;5038414;28;20267;-83
2021/12/11 09:00:19;;;;;;;88.07;47.00;;;;;;;-2.58;100.00;100901.78;5041818;28;20033;-83
2021/12/11 09:03:01;;;;;;;107.10;50.60;;;;;;;-2.54;100.00;100914.66;5047445;28;20049;-83
2021/12/11 09:05:37;;;;;;;106.55;52.53;;;;;;;-2.47;100.00;100922.22;5049341;28;20040;-83
2021/12/11 09:08:15;;;;;;;118.25;45.85;;;;;;;-2.46;100.00;100922.16;5034588;28;20072;-82
2021/12/11 09:11:00;;;;;;;129.63;61.35;;;;;;;-2.43;100.00;100926.41;5029606;28;20060;-83
2021/12/11 09:13:31;;;;;;;113.28;49.20;;;;;;;-2.46;100.00;100922.16;5039091;28;20037;-82
2021/12/11 09:15:59;;;;;;;118.22;48.20;;;;;;;-2.42;100.00;100938.63;5048744;28;20037;-83
2021/12/11 09:18:32;;;;;;;115.10;58.25;;;;;;;-2.33;100.00;100938.16;5024071;28;20124;-83
2021/12/11 09:21:07;;;;;;;122.30;54.58;;;;;;;-2.27;100.00;100937.88;5042065;28;20033;-83
2021/12/11 09:24:04;;;;;;;115.68;48.70;;;;;;;-2.30;100.00;100935.41;5035622;28;20045;-83
2021/12/11 09:26:38;;;;;;;157.75;60.58;;;;;;;-2.24;100.00;100948.22;5039475;28;20045;-83
2021/12/11 09:29:06;;;;;;;151.65;58.90;;;;;;;-2.24;100.00;100948.22;5043597;28;20559;-83
2021/12/11 09:31:56;;;;;;;152.73;55.58;;;;;;;-2.19;100.00;100948.81;5037553;28;20044;-83
2021/12/11 09:34:27;;;;;;;165.23;61.38;;;;;;;-2.17;100.00;100962.75;5024291;28;20045;-83
2021/12/11 09:36:59;;;;;;;165.18;68.82;;;;;;;-2.03;100.00;100954.16;5041624;28;20037;-83
2021/12/11 09:39:31;;;;;;;183.25;63.50;;;;;;;-2.02;100.00;100963.72;5032520;28;20122;-83
2021/12/11 09:41:56;;;;;;;263.52;77.97;;;;;;;-1.94;100.00;100972.06;5030491;28;20048;-83
2021/12/11 09:44:29;;;;;;;270.73;81.70;;;;;;;-1.84;100.00;100972.47;5032968;28;20513;-83
2021/12/11 09:47:14;;;;;;;264.02;72.60;;;;;;;-1.84;100.00;100975.94;5046557;28;20048;-83
2021/12/11 09:49:45;;;;;;;361.58;86.43;;;;;;;-1.75;100.00;100977.22;5045588;28;20445;-84
2021/12/11 09:52:23;;;;;;;313.73;82.90;;;;;;;-1.69;100.00;100983.94;5048045;28;20488;-83
2021/12/11 09:54:59;;;;;;;230.25;74.10;;;;;;;-1.64;100.00;100988.03;5022473;28;20124;-83
2021/12/11 09:57:31;;;;;;;273.77;83.70;;;;;;;-1.57;100.00;100992.97;5027512;28;20033;-84
2021/12/11 10:00:00;;;;;;;346.23;90.22;;;;;;;-1.54;100.00;100996.28;5040128;28;20030;-84
2021/12/11 10:02:30;;;;;;;340.73;88.22;;;;;;;-1.51;100.00;101000.53;5006993;28;20542;-84
2021/12/11 10:05:55;;;;;;;345.38;87.32;;;;;;;-1.45;100.00;101001.06;5009507;28;20538;-82
2021/12/11 10:08:41;;;;;;;379.25;92.68;;;;;;;-1.42;100.00;101006.16;5015849;28;20045;-82
2021/12/11 10:11:22;;;;;;;571.40;112.32;;;;;;;-1.36;100.00;101010.25;5005137;28;20100;-84
2021/12/11 10:13:50;;;;;;;359.70;94.75;;;;;;;-1.35;100.00;101001.44;5026001;28;20570;-84
2021/12/11 10:16:19;;;;;;;377.10;93.73;;;;;;;-1.30;100.00;100999.38;5036917;28;20041;-83
2021/12/11 10:18:46;;;;;;;353.52;93.53;;;;;;;-1.23;100.00;101013.91;5021683;28;20041;-84
2021/12/11 10:21:23;;;;;;;333.80;96.93;;;;;;;-1.19;100.00;101001.44;5018566;28;20037;-84
2021/12/11 10:23:52;;;;;;;360.77;92.68;;;;;;;-1.18;100.00;101004.00;5040446;28;20593;-84
2021/12/11 10:26:20;;;;;;;336.67;93.38;;;;;;;-1.12;100.00;101021.25;5025047;28;20159;-83
2021/12/11 10:28:51;;;;;;;481.20;100.05;;;;;;;-1.11;100.00;101019.47;4997254;28;20049;-85
2021/12/11 10:31:30;;;;;;;484.17;98.57;;;;;;;-1.09;100.00;101022.84;5003567;28;20038;-85
2021/12/11 10:33:59;;;;;;;506.85;104.32;;;;;;;-1.07;100.00;101015.72;5037234;28;20105;-86
2021/12/11 10:36:26;;;;;;;;;;;;;;;-1.04;100.00;101021.66;5025502;28;20116;-85
2021/12/11 10:38:52;;;;;;;473.70;101.40;;;;;;;-1.06;100.00;101017.44;5042576;28;19925;-85
2021/12/11 10:41:19;;;;;;;318.08;68.95;;;;;;;-1.01;100.00;101015.38;5028395;28;20041;-85
2021/12/11 10:43:53;;;;;;;389.52;94.90;;;;;;;-0.94;100.00;101016.75;5027642;28;20049;-85
2021/12/11 10:46:21;;;;;;;450.65;97.60;;;;;;;-0.87;100.00;101015.44;5043848;28;20127;-85
2021/12/11 10:48:47;;;;;;;563.50;105.70;;;;;;;-0.79;100.00;101015.88;5042902;28;20049;-85
2021/12/11 10:51:15;;;;;;;545.40;111.60;;;;;;;-0.77;100.00;101029.00;5044671;28;20040;-84
2021/12/11 10:53:46;;;;;;;590.97;112.93;;;;;;;-0.75;100.00;101027.97;5022335;28;20098;-85
2021/12/11 10:56:12;;;;;;;551.33;91.07;;;;;;;-0.74;100.00;101024.38;4997104;28;20087;-84
2021/12/11 10:58:46;;;;;;;576.17;101.93;;;;;;;-0.68;100.00;101036.38;5004509;28;20658;-85
2021/12/11 11:01:28;;;;;;;458.48;78.88;;;;;;;-0.69;100.00;101038.16;5008920;28;20045;-85
2021/12/11 11:03:59;;;;;;;510.92;89.53;;;;;;;-0.66;100.00;101038.91;5024367;28;20520;-86
2021/12/11 11:06:25;;;;;;;469.40;81.30;;;;;;;-0.63;100.00;101036.09;5021073;28;20052;-85
2021/12/11 11:08:51;;;;;;;444.08;70.95;;;;;;;-0.62;100.00;101033.38;5030836;28;20568;-84
2021/12/11 11:11:20;;;;;;;663.80;112.88;;;;;;;-0.58;100.00;101031.41;4986177;28;20085;-84
2021/12/11 11:13:47;;;;;;;412.13;67.65;;;;;;;-0.56;100.00;101038.31;5011634;28;20054;-85
2021/12/11 11:16:14;;;;;;;356.95;64.20;;;;;;;-0.54;100.00;101048.78;5010451;28;20037;-84
2021/12/11 11:18:39;;;;;;;592.45;102.90;;;;;;;-0.50;100.00;101058.19;5032773;28;20037;-84
2021/12/11 11:21:10;;;;;;;431.88;89.75;;;;;;;-0.51;100.00;101062.63;5033381;28;20394;-84
2021/12/11 11:23:36;;;;;;;567.25;107.32;;;;;;;-0.47;100.00;101053.59;5031984;28;20049;-84
2021/12/11 11:26:07;;;;;;;530.55;99.53;;;;;;;-0.46;100.00;101057.97;5033192;28;20041;-84
2021/12/11 11:28:33;;;;;;;422.48;75.45;;;;;;;-0.46;100.00;101070.28;5032406;28;20037;-83